Time;durP1;ratioP1;P1;durP2;ratioP2;P2;SDS_P1;SDS_P2;PMS_P1;PMS_P2;Temp;Humidity;BMP_temperature;BMP_pressure;BME280_temperature;BME280_humidity;BME280_pressure;Samples;Min_cycle;Max_cycle;Signal;HPM_P1;HPM_P2
2021/01/15 00:00:52;;;;;;;4.03;2.55;;;5.50;74.20;;;;;;5069996;28;20029;-82
2021/01/15 00:10:38;;;;;;;4.30;2.73;;;5.50;73.90;;;;;;4954925;29;20125;-83
2021/01/15 00:16:58;;;;;;;10.02;2.40;;;5.50;74.00;;;;;;4890694;29;20102;-81
2021/01/15 00:19:55;;;;;;;2.53;2.33;;;5.50;73.70;;;;;;4884240;29;20025;-79
2021/01/15 00:26:45;;;;;;;2.50;2.20;;;5.40;73.90;;;;;;4804447;29;20708;-80
2021/01/15 00:50:42;;;;;;;3.70;2.58;;;5.40;74.60;;;;;;4841778;29;20044;-83
2021/01/15 00:53:40;;;;;;;3.67;2.28;;;5.40;74.90;;;;;;4877664;29;20036;-80
2021/01/15 01:00:13;;;;;;;3.35;2.38;;;5.40;75.40;;;;;;4921600;28;20117;-81
2021/01/15 01:03:10;;;;;;;3.92;2.83;;;5.40;76.30;;;;;;5010423;28;20154;-80
2021/01/15 01:19:12;;;;;;;;;;;5.30;75.90;;;;;;4903200;29;19939;-80
2021/01/15 01:25:41;;;;;;;3.13;2.83;;;5.20;76.10;;;;;;4933673;29;20118;-80
2021/01/15 01:32:34;;;;;;;4.47;2.60;;;5.10;76.70;;;;;;4949888;29;20050;-81
2021/01/15 01:42:50;;;;;;;3.00;2.70;;;5.20;76.20;;;;;;4915364;29;20055;-79
2021/01/15 02:02:29;;;;;;;3.97;2.75;;;5.00;76.40;;;;;;4932186;29;20358;-82
2021/01/15 02:09:05;;;;;;;3.92;2.50;;;5.00;76.70;;;;;;4836909;29;20130;-79
2021/01/15 02:12:17;;;;;;;2.50;2.30;;;5.00;76.60;;;;;;4839449;29;20066;-79
2021/01/15 02:15:25;;;;;;;;;;;;;;;;;;;;;
2021/01/15 02:18:39;;;;;;;3.40;2.55;;;5.10;77.00;;;;;;4839668;29;20037;-81
2021/01/15 02:21:56;;;;;;;3.95;2.63;;;5.10;76.70;;;;;;4831498;29;20169;-81
2021/01/15 02:25:09;;;;;;;3.05;2.40;;;5.10;76.90;;;;;;4831611;29;20030;-83
2021/01/15 02:28:16;;;;;;;2.78;2.45;;;5.10;76.30;;;;;;4857545;29;20046;-80
2021/01/15 02:31:31;;;;;;;;;;;;;;;;;;;;;
2021/01/15 02:34:41;;;;;;;3.97;2.50;;;5.10;76.10;;;;;;4949660;29;20035;-83
2021/01/15 02:38:54;;;;;;;2.42;2.22;;;5.00;76.30;;;;;;4952183;29;20070;-79
2021/01/15 02:51:34;;;;;;;3.17;2.70;;;5.10;77.00;;;;;;5050260;28;20044;-80
2021/01/15 02:54:14;;;;;;;3.00;2.45;;;5.10;76.70;;;;;;5049489;28;20129;-79
2021/01/15 03:00:26;;;;;;;;;;;;;;;;;;;;;
2021/01/15 03:10:42;;;;;;;4.43;2.47;;;5.20;75.80;;;;;;5092234;28;20391;-80
2021/01/15 03:14:02;;;;;;;2.92;2.45;;;5.10;75.60;;;;;;5091696;28;20121;-80
2021/01/15 03:17:02;;;;;;;3.20;2.47;;;5.20;75.40;;;;;;5091216;28;20094;-83
2021/01/15 03:23:40;;;;;;;3.22;2.55;;;5.20;75.60;;;;;;5077484;28;20495;-81
2021/01/15 03:33:54;;;;;;;2.80;2.50;;;5.20;76.40;;;;;;5060093;28;20415;-83
2021/01/15 03:44:24;;;;;;;4.70;2.40;;;5.10;75.20;;;;;;4875461;29;20624;-81
2021/01/15 03:48:18;;;;;;;;;;;;;;;;;;;;;
2021/01/15 03:51:34;;;;;;;2.83;2.15;;;5.20;75.20;;;;;;4890829;29;20025;-80
2021/01/15 04:07:58;;;;;;;5.97;2.53;;;5.30;75.20;;;;;;4948870;28;20092;-82
2021/01/15 04:11:32;;;;;;;2.95;2.17;;;5.30;75.00;;;;;;5075302;28;20037;-83
2021/01/15 04:18:13;;;;;;;;;;;;;;;;;;;;;
2021/01/15 04:25:05;;;;;;;5.18;2.10;;;5.40;73.70;;;;;;5000905;28;20041;-83
2021/01/15 05:02:49;;;;;;;;;;;;;;;;;;;;;
2021/01/15 05:15:40;;;;;;;2.47;2.22;;;4.90;78.50;;;;;;4992705;28;20070;-82
2021/01/15 05:25:27;;;;;;;3.85;2.20;;;4.80;79.30;;;;;;4919302;29;20047;-81
2021/01/15 05:38:52;;;;;;;8.38;2.78;;;4.80;80.60;;;;;;5004179;28;20119;-83
2021/01/15 05:49:01;;;;;;;;;;;;;;;;;;;;;
2021/01/15 05:58:46;;;;;;;4.50;2.88;;;4.70;81.10;;;;;;4857907;29;20097;-83
2021/01/15 06:05:07;;;;;;;4.25;2.83;;;4.70;81.60;;;;;;4910180;29;20040;-83
2021/01/15 06:29:02;;;;;;;;;;;;;;;;;;;;;
2021/01/15 06:31:52;;;;;;;5.13;2.83;;;4.70;81.40;;;;;;4890034;29;20040;-79
2021/01/15 06:42:25;;;;;;;3.55;2.67;;;4.70;81.70;;;;;;4873461;29;20502;-83
2021/01/15 06:45:12;;;;;;;11.75;3.25;;;4.70;82.10;;;;;;4867466;29;20515;-80
2021/01/15 06:48:36;;;;;;;;;;;;;;;;;;;;;
2021/01/15 06:55:15;;;;;;;5.00;2.85;;;4.80;81.70;;;;;;5004160;28;20134;-83
2021/01/15 06:58:47;;;;;;;4.10;3.13;;;4.80;82.00;;;;;;5088175;28;20020;-82
2021/01/15 07:02:16;;;;;;;4.03;3.20;;;4.80;81.80;;;;;;4995224;28;20066;-79
2021/01/15 07:05:52;;;;;;;;;;;;;;;;;;;;;
2021/01/15 07:09:07;;;;;;;;;;;;;;;;;;;;;
2021/01/15 07:23:24;;;;;;;;;;;;;;;;;;;;;
2021/01/15 07:30:25;;;;;;;2.40;2.20;;;5.40;80.80;;;;;;4889155;29;20111;-79
2021/01/15 07:33:09;;;;;;;3.30;2.75;;;5.40;79.80;;;;;;4846426;29;20041;-80
2021/01/15 07:37:06;;;;;;;4.68;2.75;;;5.60;80.00;;;;;;4872987;29;20807;-78
2021/01/15 07:39:49;;;;;;;4.35;2.58;;;5.60;79.80;;;;;;4903315;29;20127;-79
2021/01/15 07:42:52;;;;;;;2.67;2.30;;;5.70;79.40;;;;;;4894830;29;20036;-79
2021/01/15 07:49:29;;;;;;;2.63;2.08;;;5.80;78.50;;;;;;4875141;29;20040;-82
2021/01/15 07:52:50;;;;;;;5.63;2.92;;;5.80;78.10;;;;;;4924320;29;20043;-82
2021/01/15 08:02:36;;;;;;;;;;;;;;;;;;;;;
2021/01/15 08:05:54;;;;;;;3.72;3.05;;;5.80;78.30;;;;;;4988482;28;20031;-79
2021/01/15 08:22:16;;;;;;;13.95;9.30;;;5.60;79.40;;;;;;4934856;29;20051;-79
2021/01/15 08:25:02;;;;;;;8.50;3.60;;;5.50;79.70;;;;;;4942710;29;20077;-78
2021/01/15 08:28:04;;;;;;;3.85;2.70;;;5.60;79.40;;;;;;4926373;29;20124;-78
2021/01/15 08:31:22;;;;;;;5.05;2.70;;;5.60;79.20;;;;;;4937154;29;20162;-79
2021/01/15 08:34:09;;;;;;;4.13;2.50;;;5.50;79.60;;;;;;4939363;28;20415;-78
2021/01/15 08:47:35;;;;;;;;;;;;;;;;;;;;;
2021/01/15 08:57:23;;;;;;;5.22;2.83;;;5.70;79.60;;;;;;5059053;28;20044;-80
2021/01/15 09:10:06;;;;;;;;;;;;;;;;;;;;;
2021/01/15 09:13:31;;;;;;;;;;;;;;;;;;;;;
2021/01/15 09:20:36;;;;;;;;;;;;;;;;;;;;;
2021/01/15 09:23:53;;;;;;;4.80;3.38;;;5.70;80.40;;;;;;4908311;29;20039;-82
2021/01/15 09:33:54;;;;;;;4.55;3.55;;;5.70;80.10;;;;;;4901888;29;20111;-78
2021/01/15 09:44:01;;;;;;;5.13;4.15;;;5.60;80.40;;;;;;4910396;29;20042;-78
2021/01/15 09:47:22;;;;;;;10.13;6.32;;;5.60;80.40;;;;;;4921613;28;20587;-81
2021/01/15 09:53:47;;;;;;;6.28;4.88;;;5.80;80.80;;;;;;4939789;28;20046;-82
2021/01/15 09:57:09;;;;;;;;;;;;;;;;;;;;;
2021/01/15 10:14:29;;;;;;;3.20;2.53;;;7.60;76.40;;;;;;4959372;28;20779;-79
2021/01/15 10:17:51;;;;;;;2.40;2.13;;;8.50;73.30;;;;;;4966398;28;20034;-83
2021/01/15 10:27:24;;;;;;;;;;;;;;;;;;;;;
2021/01/15 10:34:09;;;;;;;7.32;5.38;;;12.00;65.60;;;;;;4961966;28;20081;-81
2021/01/15 10:37:23;;;;;;;3.35;2.38;;;12.70;64.10;;;;;;4901962;29;20131;-80
2021/01/15 10:40:39;;;;;;;5.15;3.17;;;13.50;62.40;;;;;;4912828;29;20091;-80
2021/01/15 11:24:53;;;;;;;5.25;4.18;;;12.80;62.00;;;;;;4843153;29;20056;-79
2021/01/15 11:28:16;;;;;;;;;;;;;;;;;;;;;
2021/01/15 11:31:03;;;;;;;;;;;12.40;61.90;;;;;;4891767;29;20036;-80
2021/01/15 11:58:10;;;;;;;8.60;6.65;;;9.50;69.00;;;;;;4915509;29;20043;-79
2021/01/15 12:01:13;;;;;;;4.72;3.33;;;9.20;69.00;;;;;;4895542;29;20053;-78
2021/01/15 12:04:37;;;;;;;;;;;;;;;;;;;;;
2021/01/15 12:08:20;;;;;;;5.45;3.80;;;8.80;70.40;;;;;;4944379;29;20035;-78
2021/01/15 12:46:00;;;;;;;8.48;5.15;;;8.20;73.30;;;;;;4935005;29;20054;-79
2021/01/15 12:52:46;;;;;;;5.40;4.10;;;8.30;74.40;;;;;;5006796;28;20080;-80
2021/01/15 13:06:17;;;;;;;6.15;3.33;;;8.20;74.40;;;;;;4990142;28;20494;-81
2021/01/15 13:09:17;;;;;;;5.80;3.67;;;8.10;74.20;;;;;;4985191;28;20043;-78
2021/01/15 13:12:24;;;;;;;6.85;4.07;;;8.10;73.90;;;;;;4980849;28;20853;-80
2021/01/15 13:18:12;;;;;;;;;;;8.00;75.80;;;;;;5015010;28;20513;-83
2021/01/15 13:21:27;;;;;;;5.82;3.40;;;7.90;74.00;;;;;;5011899;28;19968;-80
2021/01/15 13:24:26;;;;;;;5.68;3.63;;;7.80;74.90;;;;;;4888203;29;20060;-79
2021/01/15 13:34:40;;;;;;;;;;;;;;;;;;;;;
2021/01/15 13:45:13;;;;;;;5.82;3.55;;;7.70;75.20;;;;;;4801889;29;20035;-78
2021/01/15 13:51:31;;;;;;;6.45;4.03;;;7.50;75.70;;;;;;4783807;30;20077;-78
2021/01/15 14:01:29;;;;;;;6.10;3.50;;;7.50;76.40;;;;;;4796658;29;20550;-78
2021/01/15 14:18:11;;;;;;;6.78;3.83;;;7.40;77.40;;;;;;4896984;29;20042;-83
2021/01/15 14:25:00;;;;;;;;;;;;;;;;;;;;;
2021/01/15 14:28:18;;;;;;;7.43;5.07;;;7.30;77.80;;;;;;4933870;29;20351;-81
2021/01/15 14:41:42;;;;;;;;;;;;;;;;;;;;;
2021/01/15 14:58:21;;;;;;;11.05;6.30;;;7.00;78.20;;;;;;4932224;29;20140;-80
2021/01/15 15:01:25;;;;;;;8.85;5.03;;;6.90;77.70;;;;;;4931648;29;20032;-80
2021/01/15 15:11:44;;;;;;;6.57;3.90;;;6.70;78.50;;;;;;4925575;29;20042;-83
2021/01/15 15:18:11;;;;;;;5.70;3.90;;;6.50;78.40;;;;;;4891423;28;20123;-79
2021/01/15 15:20:46;;;;;;;5.05;3.80;;;6.40;78.80;;;;;;4987804;28;20038;-79
2021/01/15 15:30:11;;;;;;;6.32;4.43;;;6.30;79.80;;;;;;5025314;28;20057;-83
2021/01/15 15:43:21;;;;;;;8.25;5.65;;;6.10;80.30;;;;;;5001653;28;20102;-83
2021/01/15 15:50:41;;;;;;;8.20;4.65;;;6.10;80.60;;;;;;4997062;28;20034;-80
2021/01/15 16:00:03;;;;;;;6.40;4.57;;;5.90;81.60;;;;;;5017696;28;20031;-83
2021/01/15 16:09:21;;;;;;;11.18;7.72;;;5.80;81.40;;;;;;5078330;28;20040;-84
2021/01/15 16:12:57;;;;;;;;;;;;;;;;;;;;;
2021/01/15 16:15:27;;;;;;;11.43;7.13;;;5.60;81.80;;;;;;5006100;28;20030;-79
2021/01/15 16:21:49;;;;;;;11.27;6.35;;;5.60;81.80;;;;;;5046220;28;20417;-79
2021/01/15 16:42:38;;;;;;;14.18;9.50;;;5.30;83.30;;;;;;4932987;28;20055;-79
2021/01/15 16:45:23;;;;;;;15.32;8.27;;;5.20;83.20;;;;;;4948929;28;20055;-80
2021/01/15 16:55:10;;;;;;;12.07;7.10;;;5.10;83.50;;;;;;5009055;28;20072;-82
2021/01/15 16:58:35;;;;;;;;;;;;;;;;;;;;;
2021/01/15 17:15:33;;;;;;;;;;;;;;;;;;;;;
2021/01/15 17:19:04;;;;;;;7.82;5.40;;;4.90;83.30;;;;;;5032266;28;20129;-80
2021/01/15 17:25:16;;;;;;;5.47;4.68;;;4.80;83.20;;;;;;5098762;28;20067;-80
2021/01/15 17:35:06;;;;;;;;;;;;;;;;;;;;;
2021/01/15 17:52:17;;;;;;;10.70;6.85;;;4.60;82.90;;;;;;5007280;28;20060;-78
2021/01/15 17:55:09;;;;;;;10.95;7.28;;;4.60;83.10;;;;;;5049710;28;20025;-79
2021/01/15 18:07:54;;;;;;;14.95;10.63;;;4.60;83.30;;;;;;5000219;28;20053;-81
2021/01/15 18:10:41;;;;;;;16.75;11.43;;;4.60;83.60;;;;;;4941128;29;20039;-77
2021/01/15 18:20:08;;;;;;;11.60;7.40;;;4.60;83.10;;;;;;4989847;28;20757;-81
2021/01/15 18:26:29;;;;;;;15.75;9.27;;;4.60;83.60;;;;;;4910943;29;20036;-78
2021/01/15 18:29:22;;;;;;;18.73;10.73;;;4.50;83.80;;;;;;4917081;28;20053;-78
2021/01/15 18:36:23;;;;;;;13.00;7.45;;;4.50;84.10;;;;;;5026470;28;20028;-81
2021/01/15 18:46:20;;;;;;;19.50;12.35;;;4.50;83.70;;;;;;4968861;28;20061;-77
2021/01/15 18:48:59;;;;;;;18.27;8.82;;;4.40;84.00;;;;;;4973078;28;20038;-78
2021/01/15 18:51:30;;;;;;;12.35;7.82;;;4.40;84.10;;;;;;5087384;28;20036;-78
2021/01/15 18:55:01;;;;;;;;;;;;;;;;;;;;;
2021/01/15 19:03:33;;;;;;;13.05;8.05;;;4.30;84.20;;;;;;5088773;28;20044;-72
2021/01/15 19:05:59;;;;;;;12.20;7.55;;;4.30;84.80;;;;;;5086885;28;20025;-73
2021/01/15 19:08:25;;;;;;;10.60;7.20;;;4.30;85.20;;;;;;5090745;28;20586;-73
2021/01/15 19:10:50;;;;;;;12.57;8.00;;;4.30;85.10;;;;;;5103939;28;20027;-74
2021/01/15 19:13:16;;;;;;;15.13;7.95;;;4.30;85.00;;;;;;5109995;28;20023;-73
2021/01/15 19:15:42;;;;;;;13.32;8.27;;;4.30;85.20;;;;;;5111167;28;20375;-72
2021/01/15 19:18:13;;;;;;;13.25;8.75;;;4.30;85.60;;;;;;5102637;28;20011;-73
2021/01/15 19:20:42;;;;;;;15.48;9.43;;;4.30;85.80;;;;;;5109337;28;20061;-71
2021/01/15 19:23:09;;;;;;;13.48;9.40;;;4.30;85.60;;;;;;5109581;28;20012;-71
2021/01/15 19:25:35;;;;;;;16.17;10.05;;;4.20;85.90;;;;;;5090384;28;20019;-74
2021/01/15 19:28:01;;;;;;;14.55;10.05;;;4.30;86.00;;;;;;5110427;28;20107;-71
2021/01/15 19:30:27;;;;;;;14.20;9.82;;;4.20;86.30;;;;;;5100733;28;20406;-72
2021/01/15 19:32:53;;;;;;;20.17;11.48;;;4.20;86.20;;;;;;5107791;28;20023;-71
2021/01/15 19:35:22;;;;;;;17.05;10.50;;;4.20;86.40;;;;;;5106354;28;20024;-72
2021/01/15 19:37:48;;;;;;;15.68;9.82;;;4.20;86.70;;;;;;5105504;28;20055;-71
2021/01/15 19:40:14;;;;;;;21.30;14.02;;;4.20;87.70;;;;;;5096426;28;20470;-70
2021/01/15 19:42:39;;;;;;;23.77;14.15;;;4.20;87.90;;;;;;5107163;28;20026;-70
2021/01/15 19:45:08;;;;;;;18.52;12.18;;;4.20;87.60;;;;;;5102053;28;20438;-70
2021/01/15 19:47:33;;;;;;;13.10;8.57;;;4.20;87.70;;;;;;5105892;28;20036;-72
2021/01/15 19:49:59;;;;;;;15.10;8.93;;;4.30;87.30;;;;;;5098806;28;20035;-72
2021/01/15 19:52:25;;;;;;;19.88;10.13;;;4.30;87.00;;;;;;5095482;28;20032;-71
2021/01/15 19:54:52;;;;;;;18.88;9.55;;;4.30;87.00;;;;;;5072360;28;20024;-71
2021/01/15 19:57:18;;;;;;;17.85;9.43;;;4.40;87.60;;;;;;5090709;28;20422;-72
2021/01/15 19:59:43;;;;;;;14.45;8.98;;;4.40;87.50;;;;;;5089145;28;20024;-71
2021/01/15 20:02:09;;;;;;;14.05;9.15;;;4.40;87.40;;;;;;5095388;28;20514;-71
2021/01/15 20:04:35;;;;;;;17.17;8.50;;;4.40;87.70;;;;;;5111183;28;20361;-70
2021/01/15 20:07:01;;;;;;;13.90;8.07;;;4.40;88.70;;;;;;5113439;28;20036;-71
2021/01/15 20:09:26;;;;;;;12.57;7.68;;;4.60;88.80;;;;;;5113080;28;20463;-71
2021/01/15 20:11:52;;;;;;;11.50;7.50;;;4.60;86.70;;;;;;5113037;28;20023;-70
2021/01/15 20:14:18;;;;;;;18.35;8.25;;;4.50;86.70;;;;;;5105600;28;20130;-72
2021/01/15 20:16:43;;;;;;;14.35;7.95;;;4.50;87.00;;;;;;5110860;28;20055;-70
2021/01/15 20:19:09;;;;;;;32.65;17.17;;;4.50;86.30;;;;;;5085334;28;20035;-71
2021/01/15 20:21:42;;;;;;;19.02;10.75;;;4.50;86.50;;;;;;5097401;28;20369;-70
2021/01/15 20:24:08;;;;;;;23.65;10.80;;;4.50;87.00;;;;;;5106680;28;20066;-71
2021/01/15 20:26:34;;;;;;;13.40;8.32;;;4.40;87.60;;;;;;5095489;28;20122;-70
2021/01/15 20:29:00;;;;;;;14.80;8.68;;;4.40;86.80;;;;;;5093230;28;20527;-73
2021/01/15 20:31:25;;;;;;;16.25;9.63;;;4.40;86.80;;;;;;5109158;28;20095;-69
2021/01/15 20:33:51;;;;;;;16.08;10.07;;;4.40;87.20;;;;;;5106995;28;20020;-71
2021/01/15 20:36:17;;;;;;;16.88;10.68;;;4.40;86.80;;;;;;5110343;28;20020;-71
2021/01/15 20:38:55;;;;;;;25.67;14.25;;;4.40;86.60;;;;;;5089718;28;20042;-72
2021/01/15 20:41:22;;;;;;;17.88;12.00;;;4.40;86.90;;;;;;5108589;28;20098;-71
2021/01/15 20:43:50;;;;;;;16.95;10.93;;;4.40;87.30;;;;;;5111724;28;20387;-69
2021/01/15 20:46:16;;;;;;;16.63;10.68;;;4.40;87.50;;;;;;5108246;28;20031;-69
2021/01/15 20:48:43;;;;;;;19.00;11.23;;;4.40;87.40;;;;;;5111305;28;20127;-70
2021/01/15 20:51:10;;;;;;;12.20;8.02;;;4.40;87.80;;;;;;5109458;28;20424;-73
2021/01/15 20:53:36;;;;;;;18.15;9.82;;;4.40;86.80;;;;;;5108823;28;20019;-72
2021/01/15 20:56:02;;;;;;;14.30;8.95;;;4.40;87.00;;;;;;5108740;28;20472;-70
2021/01/15 20:58:32;;;;;;;13.55;8.63;;;4.40;87.00;;;;;;5110041;28;20068;-69
2021/01/15 21:00:58;;;;;;;29.67;12.00;;;4.30;87.10;;;;;;5111499;28;20074;-69
2021/01/15 21:03:24;;;;;;;16.80;9.18;;;4.30;87.30;;;;;;5110831;28;20500;-70
2021/01/15 21:05:52;;;;;;;17.02;9.68;;;4.30;87.50;;;;;;5110419;28;20031;-70
2021/01/15 21:08:18;;;;;;;16.30;8.70;;;4.30;87.50;;;;;;5110067;28;20480;-70
2021/01/15 21:10:44;;;;;;;12.93;7.60;;;4.30;87.50;;;;;;5108279;28;20027;-70
2021/01/15 21:13:10;;;;;;;15.32;9.57;;;4.30;87.70;;;;;;5106828;28;20476;-70
2021/01/15 21:15:35;;;;;;;14.48;9.07;;;4.30;88.10;;;;;;5111885;28;20023;-71
2021/01/15 21:18:01;;;;;;;17.48;10.25;;;4.30;88.70;;;;;;5111669;28;20111;-70
2021/01/15 21:20:27;;;;;;;17.35;8.77;;;4.30;88.60;;;;;;5103167;28;20047;-70
2021/01/15 21:22:53;;;;;;;10.05;7.50;;;4.20;89.10;;;;;;5108077;28;20042;-70
2021/01/15 21:25:22;;;;;;;13.38;8.38;;;4.20;88.90;;;;;;5092076;28;20430;-70
2021/01/15 21:27:51;;;;;;;13.50;7.80;;;4.20;87.60;;;;;;5109415;28;20100;-71
2021/01/15 21:30:20;;;;;;;13.43;8.50;;;4.20;87.30;;;;;;5103219;28;20114;-71
2021/01/15 21:32:47;;;;;;;14.32;7.35;;;4.20;87.90;;;;;;5103050;28;20114;-71
2021/01/15 21:35:14;;;;;;;14.50;8.25;;;4.20;88.00;;;;;;5110370;28;20024;-72
2021/01/15 21:37:41;;;;;;;12.25;7.95;;;4.20;87.70;;;;;;5111194;28;20072;-72
2021/01/15 21:40:08;;;;;;;11.52;6.47;;;4.10;88.00;;;;;;5106566;28;20019;-72
2021/01/15 21:42:34;;;;;;;12.35;7.53;;;4.10;87.50;;;;;;5112531;28;20011;-72
2021/01/15 21:45:00;;;;;;;10.68;7.25;;;4.10;87.60;;;;;;5104282;28;20027;-72
2021/01/15 21:47:25;;;;;;;12.52;7.10;;;4.00;87.70;;;;;;5092998;28;20035;-71
2021/01/15 21:49:51;;;;;;;11.10;7.20;;;4.00;87.40;;;;;;5102567;28;20667;-72
2021/01/15 21:52:17;;;;;;;13.52;7.78;;;4.00;87.50;;;;;;5106558;28;20114;-71
2021/01/15 21:54:42;;;;;;;12.40;8.68;;;4.00;87.80;;;;;;5109662;28;20490;-72
2021/01/15 21:57:08;;;;;;;14.07;8.10;;;4.00;88.00;;;;;;5106825;28;20376;-71
2021/01/15 21:59:34;;;;;;;11.45;7.00;;;3.90;87.90;;;;;;5108508;28;20028;-71
2021/01/15 22:02:00;;;;;;;13.77;8.35;;;3.90;88.20;;;;;;5108499;28;20078;-72
2021/01/15 22:04:25;;;;;;;11.68;7.07;;;3.90;88.00;;;;;;5089375;28;20024;-72
2021/01/15 22:06:51;;;;;;;12.02;7.65;;;3.90;87.70;;;;;;5091820;28;20023;-72
2021/01/15 22:09:17;;;;;;;12.77;8.48;;;3.90;87.60;;;;;;5090439;28;20138;-72
2021/01/15 22:11:44;;;;;;;12.38;7.88;;;3.90;87.90;;;;;;5091451;28;20039;-71
2021/01/15 22:14:10;;;;;;;13.05;7.70;;;3.90;87.70;;;;;;5106089;28;20024;-70
2021/01/15 22:16:36;;;;;;;14.18;7.63;;;3.90;87.20;;;;;;5094768;28;20012;-73
2021/01/15 22:19:03;;;;;;;10.43;7.00;;;3.90;87.40;;;;;;5092310;28;20494;-71
2021/01/15 22:21:29;;;;;;;13.27;8.02;;;3.80;87.60;;;;;;5092000;28;20028;-72
2021/01/15 22:23:54;;;;;;;12.35;7.40;;;3.80;87.60;;;;;;5091812;28;20035;-70
2021/01/15 22:26:20;;;;;;;13.48;7.85;;;3.80;87.40;;;;;;5071918;28;20020;-70
2021/01/15 22:28:46;;;;;;;11.13;7.40;;;3.80;87.20;;;;;;5083513;28;20038;-71
2021/01/15 22:31:13;;;;;;;11.02;7.65;;;3.80;87.20;;;;;;5089860;28;20020;-72
2021/01/15 22:33:42;;;;;;;11.23;7.68;;;3.80;87.50;;;;;;5090835;28;20011;-70
2021/01/15 22:36:08;;;;;;;11.32;7.03;;;3.80;87.40;;;;;;5089292;28;20084;-71
2021/01/15 22:38:37;;;;;;;11.55;7.70;;;3.80;87.20;;;;;;5089228;28;20101;-71
2021/01/15 22:41:08;;;;;;;13.13;7.15;;;3.70;87.50;;;;;;5091029;28;20031;-71
2021/01/15 22:43:52;;;;;;;12.27;7.40;;;3.70;87.60;;;;;;5084352;28;20483;-72
2021/01/15 22:46:19;;;;;;;10.77;6.47;;;3.70;87.30;;;;;;5091112;28;20031;-70
2021/01/15 22:48:44;;;;;;;10.20;6.90;;;3.60;87.10;;;;;;5091110;28;20028;-73
2021/01/15 22:51:10;;;;;;;11.20;6.65;;;3.60;87.00;;;;;;5090959;28;20582;-74
2021/01/15 22:53:39;;;;;;;16.63;7.82;;;3.60;86.90;;;;;;5090779;28;20080;-71
2021/01/15 22:56:07;;;;;;;9.88;6.50;;;3.60;87.20;;;;;;5091063;28;20031;-70
2021/01/15 22:58:33;;;;;;;11.15;7.45;;;3.50;87.00;;;;;;5066385;28;20461;-72
2021/01/15 23:00:59;;;;;;;12.02;6.57;;;3.50;87.00;;;;;;5092445;28;20028;-71
2021/01/15 23:03:27;;;;;;;11.45;7.32;;;3.50;87.20;;;;;;5091296;28;20040;-71
2021/01/15 23:05:54;;;;;;;11.32;7.35;;;3.50;86.80;;;;;;5091194;28;20022;-73
2021/01/15 23:08:20;;;;;;;11.10;7.10;;;3.50;86.70;;;;;;5091360;28;20054;-71
2021/01/15 23:10:45;;;;;;;9.85;6.25;;;3.50;86.20;;;;;;5103277;28;20015;-71
2021/01/15 23:13:12;;;;;;;10.95;6.53;;;3.50;85.70;;;;;;5112060;28;20543;-70
2021/01/15 23:15:42;;;;;;;9.68;5.80;;;3.60;85.50;;;;;;5111903;28;20019;-71
2021/01/15 23:18:10;;;;;;;7.88;5.78;;;3.60;85.10;;;;;;5111730;28;20069;-72
2021/01/15 23:20:36;;;;;;;9.27;6.75;;;3.70;84.80;;;;;;5111640;28;20026;-71
2021/01/15 23:23:05;;;;;;;8.95;5.90;;;3.70;85.00;;;;;;5111594;28;20027;-71
2021/01/15 23:25:32;;;;;;;7.05;5.63;;;3.70;84.60;;;;;;5093754;28;20020;-72
2021/01/15 23:28:00;;;;;;;8.30;6.07;;;3.70;84.50;;;;;;5112032;28;20421;-72
2021/01/15 23:30:39;;;;;;;9.93;6.47;;;3.70;84.50;;;;;;5111718;28;20452;-71
2021/01/15 23:33:06;;;;;;;8.43;6.63;;;3.70;84.60;;;;;;5111909;28;20034;-72
2021/01/15 23:35:32;;;;;;;11.57;6.78;;;3.70;84.80;;;;;;5111925;28;20050;-71
2021/01/15 23:37:58;;;;;;;12.60;6.65;;;3.70;84.80;;;;;;5111597;28;20052;-72
2021/01/15 23:40:29;;;;;;;9.80;6.57;;;3.70;85.30;;;;;;5111760;28;20046;-72
2021/01/15 23:43:08;;;;;;;10.70;6.90;;;3.70;85.60;;;;;;5111919;28;20024;-71
2021/01/15 23:45:36;;;;;;;9.63;6.95;;;3.60;85.60;;;;;;5111651;28;20047;-71
2021/01/15 23:48:04;;;;;;;9.73;6.65;;;3.60;85.90;;;;;;5111625;28;20084;-72
2021/01/15 23:50:42;;;;;;;11.90;7.30;;;3.60;86.00;;;;;;5111829;28;20539;-70
2021/01/15 23:53:09;;;;;;;8.85;6.30;;;3.50;86.10;;;;;;5112106;28;20440;-70
2021/01/15 23:55:35;;;;;;;12.30;7.40;;;3.50;86.70;;;;;;5112512;28;20031;-71
2021/01/15 23:58:03;;;;;;;12.15;7.78;;;3.40;86.70;;;;;;5112312;28;20452;-71
